ePrivacy and GPDR Cookie Consent by Cookie Consent
EmailTwitter


Surface observations / United Kingdom / EGLL (03772)

Regions: Quebec | Canada | USA | Europe | France | UK | Elsewhere
Station
Display
Info & Location for EGLL (03772) | Help decoding METAR

Weather Conditions observed on 2022/01/17 at 22:50 UTC at LONDON/HEATHROW, UK (EGLL)

Temperature: 1.0 Celsius.

Dewpoint: 1.0 Celsius.

Relative Humidity: 100%

Winds: Northwest at 2 km/h or 1 knots.

Mean Sea level Pressure: 103.90 kilopascals.

Horizontal visibility: 5.59 statute miles or 8.95 kilometers.

Coded METAR:

EGLL 172250Z AUTO 31001KT 9000 NCD 01/01 Q1039 TEMPO 4000 BR=